sensor_id;sensor_type;location;lat;lon;timestamp;P1;durP1;ratioP1;P2;durP2;ratioP2
57744;SDS011;58941;50.168;4.410;2024-01-25T00:00:02;12.75;;;3.45;;
57744;SDS011;58941;50.168;4.410;2024-01-25T00:02:28;15.23;;;3.50;;
57744;SDS011;58941;50.168;4.410;2024-01-25T00:04:53;15.20;;;3.83;;
57744;SDS011;58941;50.168;4.410;2024-01-25T00:07:20;12.35;;;3.50;;
57744;SDS011;58941;50.168;4.410;2024-01-25T00:09:45;17.08;;;3.97;;
57744;SDS011;58941;50.168;4.410;2024-01-25T00:12:10;11.23;;;3.17;;
57744;SDS011;58941;50.168;4.410;2024-01-25T00:14:36;18.63;;;3.88;;
57744;SDS011;58941;50.168;4.410;2024-01-25T00:17:01;8.90;;;3.22;;
57744;SDS011;58941;50.168;4.410;2024-01-25T00:19:27;11.98;;;3.47;;
57744;SDS011;58941;50.168;4.410;2024-01-25T00:21:52;17.35;;;3.55;;
57744;SDS011;58941;50.168;4.410;2024-01-25T00:24:18;18.63;;;3.60;;
57744;SDS011;58941;50.168;4.410;2024-01-25T00:26:43;13.75;;;3.33;;
57744;SDS011;58941;50.168;4.410;2024-01-25T00:29:09;11.50;;;3.75;;
57744;SDS011;58941;50.168;4.410;2024-01-25T00:31:34;13.93;;;3.38;;
57744;SDS011;58941;50.168;4.410;2024-01-25T00:34:00;13.63;;;3.30;;
57744;SDS011;58941;50.168;4.410;2024-01-25T00:36:25;12.00;;;3.35;;
57744;SDS011;58941;50.168;4.410;2024-01-25T00:38:51;12.77;;;3.60;;
57744;SDS011;58941;50.168;4.410;2024-01-25T00:41:17;18.63;;;4.05;;
57744;SDS011;58941;50.168;4.410;2024-01-25T00:43:44;11.98;;;3.72;;
57744;SDS011;58941;50.168;4.410;2024-01-25T00:46:10;14.68;;;3.45;;
57744;SDS011;58941;50.168;4.410;2024-01-25T00:48:35;14.10;;;3.67;;
57744;SDS011;58941;50.168;4.410;2024-01-25T00:51:01;13.20;;;3.25;;
57744;SDS011;58941;50.168;4.410;2024-01-25T00:53:28;10.82;;;3.28;;
57744;SDS011;58941;50.168;4.410;2024-01-25T00:55:54;15.68;;;3.30;;
57744;SDS011;58941;50.168;4.410;2024-01-25T00:58:19;12.63;;;3.63;;
57744;SDS011;58941;50.168;4.410;2024-01-25T01:00:45;15.20;;;4.30;;
57744;SDS011;58941;50.168;4.410;2024-01-25T01:03:10;14.65;;;3.50;;
57744;SDS011;58941;50.168;4.410;2024-01-25T01:05:37;12.70;;;3.05;;
57744;SDS011;58941;50.168;4.410;2024-01-25T01:08:02;13.00;;;3.67;;
57744;SDS011;58941;50.168;4.410;2024-01-25T01:10:28;10.82;;;3.22;;
57744;SDS011;58941;50.168;4.410;2024-01-25T01:12:53;17.42;;;3.70;;
57744;SDS011;58941;50.168;4.410;2024-01-25T01:15:19;9.50;;;2.83;;
57744;SDS011;58941;50.168;4.410;2024-01-25T01:17:45;15.10;;;3.50;;
57744;SDS011;58941;50.168;4.410;2024-01-25T01:20:10;10.50;;;4.07;;
57744;SDS011;58941;50.168;4.410;2024-01-25T01:22:36;13.60;;;3.70;;
57744;SDS011;58941;50.168;4.410;2024-01-25T01:25:01;13.35;;;3.33;;
57744;SDS011;58941;50.168;4.410;2024-01-25T01:27:27;11.65;;;3.03;;
57744;SDS011;58941;50.168;4.410;2024-01-25T01:29:52;13.85;;;3.53;;
57744;SDS011;58941;50.168;4.410;2024-01-25T01:32:17;14.15;;;2.67;;
57744;SDS011;58941;50.168;4.410;2024-01-25T01:34:43;15.77;;;3.20;;
57744;SDS011;58941;50.168;4.410;2024-01-25T01:37:09;12.85;;;3.50;;
57744;SDS011;58941;50.168;4.410;2024-01-25T01:39:34;12.57;;;3.72;;
57744;SDS011;58941;50.168;4.410;2024-01-25T01:42:00;11.82;;;2.80;;
57744;SDS011;58941;50.168;4.410;2024-01-25T01:44:25;9.40;;;2.80;;
57744;SDS011;58941;50.168;4.410;2024-01-25T01:46:51;13.07;;;3.00;;
57744;SDS011;58941;50.168;4.410;2024-01-25T01:49:16;10.13;;;3.17;;
57744;SDS011;58941;50.168;4.410;2024-01-25T01:51:42;11.38;;;3.88;;
57744;SDS011;58941;50.168;4.410;2024-01-25T01:54:09;9.57;;;3.40;;
57744;SDS011;58941;50.168;4.410;2024-01-25T01:56:34;11.95;;;3.15;;
57744;SDS011;58941;50.168;4.410;2024-01-25T01:59:01;10.27;;;2.67;;
57744;SDS011;58941;50.168;4.410;2024-01-25T02:01:27;10.65;;;3.20;;
57744;SDS011;58941;50.168;4.410;2024-01-25T02:03:53;8.93;;;2.63;;
57744;SDS011;58941;50.168;4.410;2024-01-25T02:06:18;9.77;;;2.80;;
57744;SDS011;58941;50.168;4.410;2024-01-25T02:08:45;12.10;;;2.83;;
57744;SDS011;58941;50.168;4.410;2024-01-25T02:11:11;9.57;;;3.22;;
57744;SDS011;58941;50.168;4.410;2024-01-25T02:13:37;12.02;;;3.03;;
57744;SDS011;58941;50.168;4.410;2024-01-25T02:16:03;10.10;;;3.38;;
57744;SDS011;58941;50.168;4.410;2024-01-25T02:18:28;11.70;;;2.75;;
57744;SDS011;58941;50.168;4.410;2024-01-25T02:20:54;15.07;;;3.40;;
57744;SDS011;58941;50.168;4.410;2024-01-25T02:23:19;9.88;;;2.50;;
57744;SDS011;58941;50.168;4.410;2024-01-25T02:25:44;11.13;;;3.13;;
57744;SDS011;58941;50.168;4.410;2024-01-25T02:28:10;9.82;;;2.58;;
57744;SDS011;58941;50.168;4.410;2024-01-25T02:30:35;8.25;;;2.70;;
57744;SDS011;58941;50.168;4.410;2024-01-25T02:33:01;10.70;;;3.15;;
57744;SDS011;58941;50.168;4.410;2024-01-25T02:35:26;12.07;;;3.47;;
57744;SDS011;58941;50.168;4.410;2024-01-25T02:37:52;9.70;;;2.83;;
57744;SDS011;58941;50.168;4.410;2024-01-25T02:40:17;10.98;;;3.38;;
57744;SDS011;58941;50.168;4.410;2024-01-25T02:42:43;10.70;;;2.78;;
57744;SDS011;58941;50.168;4.410;2024-01-25T02:45:08;9.52;;;3.00;;
57744;SDS011;58941;50.168;4.410;2024-01-25T02:47:34;7.55;;;2.78;;
57744;SDS011;58941;50.168;4.410;2024-01-25T02:49:59;11.52;;;3.00;;
57744;SDS011;58941;50.168;4.410;2024-01-25T02:52:25;7.25;;;2.80;;
57744;SDS011;58941;50.168;4.410;2024-01-25T02:54:50;8.43;;;2.67;;
57744;SDS011;58941;50.168;4.410;2024-01-25T02:57:16;10.82;;;2.72;;
57744;SDS011;58941;50.168;4.410;2024-01-25T02:59:42;7.53;;;2.35;;
57744;SDS011;58941;50.168;4.410;2024-01-25T03:02:07;11.63;;;2.90;;
57744;SDS011;58941;50.168;4.410;2024-01-25T03:04:33;8.65;;;2.97;;
57744;SDS011;58941;50.168;4.410;2024-01-25T03:06:58;10.90;;;2.67;;
57744;SDS011;58941;50.168;4.410;2024-01-25T03:09:24;12.85;;;3.10;;
57744;SDS011;58941;50.168;4.410;2024-01-25T03:11:49;10.95;;;2.45;;
57744;SDS011;58941;50.168;4.410;2024-01-25T03:14:14;11.80;;;3.05;;
57744;SDS011;58941;50.168;4.410;2024-01-25T03:16:40;10.32;;;3.00;;
57744;SDS011;58941;50.168;4.410;2024-01-25T03:19:06;12.48;;;2.97;;
57744;SDS011;58941;50.168;4.410;2024-01-25T03:21:31;11.82;;;2.95;;
57744;SDS011;58941;50.168;4.410;2024-01-25T03:23:56;10.02;;;3.13;;
57744;SDS011;58941;50.168;4.410;2024-01-25T03:26:22;10.88;;;2.55;;
57744;SDS011;58941;50.168;4.410;2024-01-25T03:28:47;8.20;;;2.72;;
57744;SDS011;58941;50.168;4.410;2024-01-25T03:31:13;10.15;;;2.90;;
57744;SDS011;58941;50.168;4.410;2024-01-25T03:33:38;9.20;;;3.15;;
57744;SDS011;58941;50.168;4.410;2024-01-25T03:36:04;11.90;;;2.60;;
57744;SDS011;58941;50.168;4.410;2024-01-25T03:38:29;8.05;;;2.63;;
57744;SDS011;58941;50.168;4.410;2024-01-25T03:40:55;10.90;;;2.70;;
57744;SDS011;58941;50.168;4.410;2024-01-25T03:43:24;9.50;;;2.25;;
57744;SDS011;58941;50.168;4.410;2024-01-25T03:45:50;9.48;;;2.70;;
57744;SDS011;58941;50.168;4.410;2024-01-25T03:48:15;7.20;;;2.35;;
57744;SDS011;58941;50.168;4.410;2024-01-25T03:50:41;11.25;;;2.85;;
57744;SDS011;58941;50.168;4.410;2024-01-25T03:53:06;7.47;;;2.10;;
57744;SDS011;58941;50.168;4.410;2024-01-25T03:55:32;11.45;;;2.53;;
57744;SDS011;58941;50.168;4.410;2024-01-25T03:57:58;8.68;;;2.85;;
57744;SDS011;58941;50.168;4.410;2024-01-25T04:00:23;8.70;;;2.72;;
57744;SDS011;58941;50.168;4.410;2024-01-25T04:02:50;7.57;;;2.50;;
57744;SDS011;58941;50.168;4.410;2024-01-25T04:05:15;12.27;;;3.22;;
57744;SDS011;58941;50.168;4.410;2024-01-25T04:07:41;11.98;;;3.45;;
57744;SDS011;58941;50.168;4.410;2024-01-25T04:10:06;8.50;;;2.35;;
57744;SDS011;58941;50.168;4.410;2024-01-25T04:12:32;11.45;;;2.58;;
57744;SDS011;58941;50.168;4.410;2024-01-25T04:14:58;7.70;;;2.55;;
57744;SDS011;58941;50.168;4.410;2024-01-25T04:17:23;7.50;;;2.67;;
57744;SDS011;58941;50.168;4.410;2024-01-25T04:19:49;11.30;;;3.05;;
57744;SDS011;58941;50.168;4.410;2024-01-25T04:22:14;8.98;;;2.95;;
57744;SDS011;58941;50.168;4.410;2024-01-25T04:24:40;9.82;;;2.90;;
57744;SDS011;58941;50.168;4.410;2024-01-25T04:27:05;7.40;;;2.40;;
57744;SDS011;58941;50.168;4.410;2024-01-25T04:29:31;10.05;;;2.60;;
57744;SDS011;58941;50.168;4.410;2024-01-25T04:31:56;9.05;;;3.08;;
57744;SDS011;58941;50.168;4.410;2024-01-25T04:34:22;10.73;;;2.60;;
57744;SDS011;58941;50.168;4.410;2024-01-25T04:36:47;7.65;;;2.25;;
57744;SDS011;58941;50.168;4.410;2024-01-25T04:39:12;7.80;;;2.47;;
57744;SDS011;58941;50.168;4.410;2024-01-25T04:41:38;7.60;;;2.80;;
57744;SDS011;58941;50.168;4.410;2024-01-25T04:44:03;8.93;;;2.63;;
57744;SDS011;58941;50.168;4.410;2024-01-25T04:46:29;7.30;;;2.30;;
57744;SDS011;58941;50.168;4.410;2024-01-25T04:49:00;10.32;;;2.50;;
57744;SDS011;58941;50.168;4.410;2024-01-25T04:51:26;7.53;;;2.25;;
57744;SDS011;58941;50.168;4.410;2024-01-25T04:53:52;8.48;;;3.08;;
57744;SDS011;58941;50.168;4.410;2024-01-25T04:56:17;9.88;;;2.40;;
57744;SDS011;58941;50.168;4.410;2024-01-25T04:58:42;8.65;;;2.50;;
57744;SDS011;58941;50.168;4.410;2024-01-25T05:01:08;6.57;;;2.30;;
57744;SDS011;58941;50.168;4.410;2024-01-25T05:03:33;7.30;;;2.40;;
57744;SDS011;58941;50.168;4.410;2024-01-25T05:05:59;6.82;;;2.10;;
57744;SDS011;58941;50.168;4.410;2024-01-25T05:08:24;7.35;;;2.30;;
57744;SDS011;58941;50.168;4.410;2024-01-25T05:10:50;7.35;;;2.20;;
57744;SDS011;58941;50.168;4.410;2024-01-25T05:13:15;5.35;;;2.08;;
57744;SDS011;58941;50.168;4.410;2024-01-25T05:15:41;8.93;;;2.63;;
57744;SDS011;58941;50.168;4.410;2024-01-25T05:18:06;7.43;;;2.28;;
57744;SDS011;58941;50.168;4.410;2024-01-25T05:20:32;6.25;;;1.98;;
57744;SDS011;58941;50.168;4.410;2024-01-25T05:22:59;6.32;;;2.22;;
57744;SDS011;58941;50.168;4.410;2024-01-25T05:25:25;10.57;;;3.03;;
57744;SDS011;58941;50.168;4.410;2024-01-25T05:27:51;8.63;;;2.15;;
57744;SDS011;58941;50.168;4.410;2024-01-25T05:30:17;8.38;;;2.45;;
57744;SDS011;58941;50.168;4.410;2024-01-25T05:32:43;7.18;;;2.10;;
57744;SDS011;58941;50.168;4.410;2024-01-25T05:35:08;6.70;;;2.08;;
57744;SDS011;58941;50.168;4.410;2024-01-25T05:37:33;5.30;;;2.00;;
57744;SDS011;58941;50.168;4.410;2024-01-25T05:39:59;5.25;;;2.03;;
57744;SDS011;58941;50.168;4.410;2024-01-25T05:42:24;6.25;;;1.95;;
57744;SDS011;58941;50.168;4.410;2024-01-25T05:44:49;5.85;;;2.08;;
57744;SDS011;58941;50.168;4.410;2024-01-25T05:47:16;6.20;;;1.92;;
57744;SDS011;58941;50.168;4.410;2024-01-25T05:49:41;6.25;;;2.20;;
57744;SDS011;58941;50.168;4.410;2024-01-25T05:52:07;8.90;;;2.03;;
57744;SDS011;58941;50.168;4.410;2024-01-25T05:54:32;5.80;;;2.08;;
57744;SDS011;58941;50.168;4.410;2024-01-25T05:56:58;6.93;;;2.20;;
57744;SDS011;58941;50.168;4.410;2024-01-25T05:59:23;4.25;;;1.95;;
57744;SDS011;58941;50.168;4.410;2024-01-25T06:01:49;4.75;;;2.00;;
57744;SDS011;58941;50.168;4.410;2024-01-25T06:04:14;6.28;;;2.22;;
57744;SDS011;58941;50.168;4.410;2024-01-25T06:06:40;5.72;;;2.30;;
57744;SDS011;58941;50.168;4.410;2024-01-25T06:09:05;7.10;;;2.20;;
57744;SDS011;58941;50.168;4.410;2024-01-25T06:11:30;6.95;;;2.22;;
57744;SDS011;58941;50.168;4.410;2024-01-25T06:13:58;7.10;;;2.10;;
57744;SDS011;58941;50.168;4.410;2024-01-25T06:16:24;8.15;;;2.50;;
57744;SDS011;58941;50.168;4.410;2024-01-25T06:18:49;7.10;;;2.40;;
57744;SDS011;58941;50.168;4.410;2024-01-25T06:21:14;5.95;;;1.98;;
57744;SDS011;58941;50.168;4.410;2024-01-25T06:23:40;5.22;;;2.00;;
57744;SDS011;58941;50.168;4.410;2024-01-25T06:26:05;3.95;;;2.00;;
57744;SDS011;58941;50.168;4.410;2024-01-25T06:28:31;4.45;;;1.77;;
57744;SDS011;58941;50.168;4.410;2024-01-25T06:30:57;6.70;;;2.30;;
57744;SDS011;58941;50.168;4.410;2024-01-25T06:33:22;6.07;;;2.00;;
57744;SDS011;58941;50.168;4.410;2024-01-25T06:35:48;5.20;;;2.17;;
57744;SDS011;58941;50.168;4.410;2024-01-25T06:38:13;6.40;;;2.15;;
57744;SDS011;58941;50.168;4.410;2024-01-25T06:40:39;6.30;;;2.20;;
57744;SDS011;58941;50.168;4.410;2024-01-25T06:43:04;5.38;;;2.58;;
57744;SDS011;58941;50.168;4.410;2024-01-25T06:45:30;5.57;;;1.98;;
57744;SDS011;58941;50.168;4.410;2024-01-25T06:47:55;5.70;;;1.90;;
57744;SDS011;58941;50.168;4.410;2024-01-25T06:50:21;4.43;;;2.00;;
57744;SDS011;58941;50.168;4.410;2024-01-25T06:52:46;6.70;;;2.17;;
57744;SDS011;58941;50.168;4.410;2024-01-25T06:55:12;4.80;;;1.90;;
57744;SDS011;58941;50.168;4.410;2024-01-25T06:57:38;5.22;;;2.47;;
57744;SDS011;58941;50.168;4.410;2024-01-25T07:00:04;5.15;;;1.90;;
57744;SDS011;58941;50.168;4.410;2024-01-25T07:02:29;4.40;;;1.88;;
57744;SDS011;58941;50.168;4.410;2024-01-25T07:04:55;6.40;;;2.30;;
57744;SDS011;58941;50.168;4.410;2024-01-25T07:07:21;5.18;;;1.77;;
57744;SDS011;58941;50.168;4.410;2024-01-25T07:09:46;4.50;;;2.15;;
57744;SDS011;58941;50.168;4.410;2024-01-25T07:12:12;6.20;;;2.38;;
57744;SDS011;58941;50.168;4.410;2024-01-25T07:14:37;5.07;;;1.77;;
57744;SDS011;58941;50.168;4.410;2024-01-25T07:17:03;5.80;;;2.22;;
57744;SDS011;58941;50.168;4.410;2024-01-25T07:19:29;7.03;;;1.95;;
57744;SDS011;58941;50.168;4.410;2024-01-25T07:21:54;5.20;;;1.80;;
57744;SDS011;58941;50.168;4.410;2024-01-25T07:24:19;5.70;;;2.10;;
57744;SDS011;58941;50.168;4.410;2024-01-25T07:26:45;6.43;;;2.20;;
57744;SDS011;58941;50.168;4.410;2024-01-25T07:29:10;5.38;;;1.92;;
57744;SDS011;58941;50.168;4.410;2024-01-25T07:31:36;6.93;;;2.55;;
57744;SDS011;58941;50.168;4.410;2024-01-25T07:34:01;5.93;;;2.50;;
57744;SDS011;58941;50.168;4.410;2024-01-25T07:36:27;7.07;;;2.30;;
57744;SDS011;58941;50.168;4.410;2024-01-25T07:38:52;6.65;;;2.63;;
57744;SDS011;58941;50.168;4.410;2024-01-25T07:41:18;5.38;;;2.10;;
57744;SDS011;58941;50.168;4.410;2024-01-25T07:43:43;4.57;;;1.70;;
57744;SDS011;58941;50.168;4.410;2024-01-25T07:46:09;6.30;;;2.10;;
57744;SDS011;58941;50.168;4.410;2024-01-25T07:48:35;5.95;;;2.50;;
57744;SDS011;58941;50.168;4.410;2024-01-25T07:51:01;3.47;;;1.73;;
57744;SDS011;58941;50.168;4.410;2024-01-25T07:53:28;4.18;;;1.77;;
57744;SDS011;58941;50.168;4.410;2024-01-25T07:55:53;4.95;;;1.98;;
57744;SDS011;58941;50.168;4.410;2024-01-25T07:58:19;3.85;;;2.10;;
57744;SDS011;58941;50.168;4.410;2024-01-25T08:00:45;4.40;;;2.00;;
57744;SDS011;58941;50.168;4.410;2024-01-25T08:03:11;4.07;;;2.05;;
57744;SDS011;58941;50.168;4.410;2024-01-25T08:05:37;5.97;;;2.42;;
57744;SDS011;58941;50.168;4.410;2024-01-25T08:08:02;5.07;;;2.15;;
57744;SDS011;58941;50.168;4.410;2024-01-25T08:10:28;6.95;;;2.58;;
57744;SDS011;58941;50.168;4.410;2024-01-25T08:12:54;4.93;;;1.90;;
57744;SDS011;58941;50.168;4.410;2024-01-25T08:15:20;4.70;;;1.80;;
57744;SDS011;58941;50.168;4.410;2024-01-25T08:17:46;6.35;;;2.45;;
57744;SDS011;58941;50.168;4.410;2024-01-25T08:20:12;6.10;;;2.40;;
57744;SDS011;58941;50.168;4.410;2024-01-25T08:22:41;5.30;;;2.50;;
57744;SDS011;58941;50.168;4.410;2024-01-25T08:25:07;4.63;;;2.13;;
57744;SDS011;58941;50.168;4.410;2024-01-25T08:27:33;5.65;;;2.45;;
57744;SDS011;58941;50.168;4.410;2024-01-25T08:29:59;5.10;;;2.50;;
57744;SDS011;58941;50.168;4.410;2024-01-25T08:32:25;4.82;;;2.30;;
57744;SDS011;58941;50.168;4.410;2024-01-25T08:34:50;6.78;;;2.55;;
57744;SDS011;58941;50.168;4.410;2024-01-25T08:37:16;5.63;;;2.70;;
57744;SDS011;58941;50.168;4.410;2024-01-25T08:39:42;5.70;;;2.38;;
57744;SDS011;58941;50.168;4.410;2024-01-25T08:42:08;6.53;;;2.47;;
57744;SDS011;58941;50.168;4.410;2024-01-25T08:44:34;4.95;;;2.28;;
57744;SDS011;58941;50.168;4.410;2024-01-25T08:47:00;5.32;;;2.60;;
57744;SDS011;58941;50.168;4.410;2024-01-25T08:49:25;6.22;;;2.92;;
57744;SDS011;58941;50.168;4.410;2024-01-25T08:51:51;4.90;;;2.50;;
57744;SDS011;58941;50.168;4.410;2024-01-25T08:54:17;4.90;;;2.42;;
57744;SDS011;58941;50.168;4.410;2024-01-25T08:56:42;4.60;;;2.22;;
57744;SDS011;58941;50.168;4.410;2024-01-25T08:59:08;5.00;;;2.42;;
57744;SDS011;58941;50.168;4.410;2024-01-25T09:01:34;4.32;;;1.98;;
57744;SDS011;58941;50.168;4.410;2024-01-25T09:04:00;5.32;;;2.10;;
57744;SDS011;58941;50.168;4.410;2024-01-25T09:06:29;5.75;;;2.58;;
57744;SDS011;58941;50.168;4.410;2024-01-25T09:08:55;4.93;;;2.20;;
57744;SDS011;58941;50.168;4.410;2024-01-25T09:11:21;4.32;;;2.30;;
57744;SDS011;58941;50.168;4.410;2024-01-25T09:13:47;4.32;;;2.10;;
57744;SDS011;58941;50.168;4.410;2024-01-25T09:16:15;3.55;;;2.22;;
57744;SDS011;58941;50.168;4.410;2024-01-25T09:18:41;3.90;;;2.08;;
57744;SDS011;58941;50.168;4.410;2024-01-25T09:21:07;3.97;;;1.88;;
57744;SDS011;58941;50.168;4.410;2024-01-25T09:23:33;4.88;;;2.38;;
57744;SDS011;58941;50.168;4.410;2024-01-25T09:25:59;5.35;;;2.60;;
57744;SDS011;58941;50.168;4.410;2024-01-25T09:28:25;4.57;;;2.20;;
57744;SDS011;58941;50.168;4.410;2024-01-25T09:30:51;4.93;;;2.35;;
57744;SDS011;58941;50.168;4.410;2024-01-25T09:33:16;5.82;;;2.60;;
57744;SDS011;58941;50.168;4.410;2024-01-25T09:35:43;4.35;;;2.00;;
57744;SDS011;58941;50.168;4.410;2024-01-25T09:38:12;4.40;;;2.22;;
57744;SDS011;58941;50.168;4.410;2024-01-25T09:40:38;4.97;;;2.08;;
57744;SDS011;58941;50.168;4.410;2024-01-25T09:43:04;4.10;;;2.17;;
57744;SDS011;58941;50.168;4.410;2024-01-25T09:45:31;3.05;;;2.10;;
57744;SDS011;58941;50.168;4.410;2024-01-25T09:47:56;4.32;;;2.28;;
57744;SDS011;58941;50.168;4.410;2024-01-25T09:50:23;4.68;;;2.10;;
57744;SDS011;58941;50.168;4.410;2024-01-25T09:52:50;3.85;;;2.10;;
57744;SDS011;58941;50.168;4.410;2024-01-25T09:55:18;5.03;;;2.47;;
57744;SDS011;58941;50.168;4.410;2024-01-25T09:57:47;4.93;;;2.13;;
57744;SDS011;58941;50.168;4.410;2024-01-25T10:00:15;4.45;;;2.22;;
57744;SDS011;58941;50.168;4.410;2024-01-25T10:02:40;4.82;;;2.20;;
57744;SDS011;58941;50.168;4.410;2024-01-25T10:05:07;4.60;;;2.40;;
57744;SDS011;58941;50.168;4.410;2024-01-25T10:07:44;3.70;;;2.35;;
57744;SDS011;58941;50.168;4.410;2024-01-25T10:10:10;4.97;;;2.55;;
57744;SDS011;58941;50.168;4.410;2024-01-25T10:12:42;4.93;;;2.33;;
57744;SDS011;58941;50.168;4.410;2024-01-25T10:15:09;3.30;;;2.10;;
57744;SDS011;58941;50.168;4.410;2024-01-25T10:17:34;4.00;;;2.30;;
57744;SDS011;58941;50.168;4.410;2024-01-25T10:20:01;7.85;;;2.60;;
57744;SDS011;58941;50.168;4.410;2024-01-25T10:22:26;4.45;;;2.05;;
57744;SDS011;58941;50.168;4.410;2024-01-25T10:24:52;4.63;;;2.28;;
57744;SDS011;58941;50.168;4.410;2024-01-25T10:27:21;5.15;;;2.47;;
57744;SDS011;58941;50.168;4.410;2024-01-25T10:29:47;2.72;;;1.92;;
57744;SDS011;58941;50.168;4.410;2024-01-25T10:32:12;6.05;;;2.30;;
57744;SDS011;58941;50.168;4.410;2024-01-25T10:34:38;5.00;;;2.22;;
57744;SDS011;58941;50.168;4.410;2024-01-25T10:37:07;4.50;;;2.40;;
57744;SDS011;58941;50.168;4.410;2024-01-25T10:39:33;4.30;;;2.28;;
57744;SDS011;58941;50.168;4.410;2024-01-25T10:41:59;5.43;;;2.55;;
57744;SDS011;58941;50.168;4.410;2024-01-25T10:44:25;5.60;;;2.78;;
57744;SDS011;58941;50.168;4.410;2024-01-25T10:46:51;5.32;;;2.53;;
57744;SDS011;58941;50.168;4.410;2024-01-25T10:49:17;5.65;;;2.78;;
57744;SDS011;58941;50.168;4.410;2024-01-25T10:51:44;6.75;;;2.65;;
57744;SDS011;58941;50.168;4.410;2024-01-25T10:54:10;4.80;;;2.83;;
57744;SDS011;58941;50.168;4.410;2024-01-25T10:56:37;5.55;;;2.55;;
57744;SDS011;58941;50.168;4.410;2024-01-25T10:59:03;5.68;;;3.00;;
57744;SDS011;58941;50.168;4.410;2024-01-25T11:01:30;5.20;;;3.10;;
57744;SDS011;58941;50.168;4.410;2024-01-25T11:03:55;5.20;;;2.63;;
57744;SDS011;58941;50.168;4.410;2024-01-25T11:06:22;8.38;;;3.33;;
57744;SDS011;58941;50.168;4.410;2024-01-25T11:08:48;5.72;;;2.80;;
57744;SDS011;58941;50.168;4.410;2024-01-25T11:11:14;7.47;;;2.58;;
57744;SDS011;58941;50.168;4.410;2024-01-25T11:13:43;6.25;;;2.80;;
57744;SDS011;58941;50.168;4.410;2024-01-25T11:16:18;6.80;;;3.15;;
57744;SDS011;58941;50.168;4.410;2024-01-25T11:24:00;5.40;;;2.97;;
57744;SDS011;58941;50.168;4.410;2024-01-25T11:26:27;9.63;;;3.20;;
57744;SDS011;58941;50.168;4.410;2024-01-25T11:28:53;5.03;;;2.85;;
57744;SDS011;58941;50.168;4.410;2024-01-25T11:31:19;6.78;;;3.33;;
57744;SDS011;58941;50.168;4.410;2024-01-25T11:33:44;6.53;;;2.85;;
57744;SDS011;58941;50.168;4.410;2024-01-25T11:36:12;5.88;;;2.90;;
57744;SDS011;58941;50.168;4.410;2024-01-25T11:38:39;6.75;;;3.03;;
57744;SDS011;58941;50.168;4.410;2024-01-25T11:41:06;7.60;;;3.75;;
57744;SDS011;58941;50.168;4.410;2024-01-25T11:43:32;7.55;;;3.30;;
57744;SDS011;58941;50.168;4.410;2024-01-25T11:45:58;4.18;;;2.75;;
57744;SDS011;58941;50.168;4.410;2024-01-25T11:48:26;5.57;;;2.97;;
57744;SDS011;58941;50.168;4.410;2024-01-25T11:50:53;5.80;;;2.83;;
57744;SDS011;58941;50.168;4.410;2024-01-25T11:53:22;5.75;;;2.80;;
57744;SDS011;58941;50.168;4.410;2024-01-25T11:55:56;5.30;;;2.90;;
57744;SDS011;58941;50.168;4.410;2024-01-25T11:58:24;5.63;;;3.20;;
57744;SDS011;58941;50.168;4.410;2024-01-25T12:00:55;8.45;;;3.47;;
57744;SDS011;58941;50.168;4.410;2024-01-25T12:03:50;7.00;;;3.20;;
57744;SDS011;58941;50.168;4.410;2024-01-25T12:06:29;8.13;;;2.92;;
57744;SDS011;58941;50.168;4.410;2024-01-25T12:09:08;5.75;;;3.05;;
57744;SDS011;58941;50.168;4.410;2024-01-25T12:11:36;6.38;;;3.05;;
57744;SDS011;58941;50.168;4.410;2024-01-25T12:14:02;5.35;;;2.85;;
57744;SDS011;58941;50.168;4.410;2024-01-25T12:16:28;5.60;;;2.67;;
57744;SDS011;58941;50.168;4.410;2024-01-25T12:18:54;4.60;;;2.40;;
57744;SDS011;58941;50.168;4.410;2024-01-25T12:21:22;6.45;;;2.88;;
57744;SDS011;58941;50.168;4.410;2024-01-25T12:23:49;6.13;;;2.95;;
57744;SDS011;58941;50.168;4.410;2024-01-25T12:26:15;5.78;;;2.60;;
57744;SDS011;58941;50.168;4.410;2024-01-25T12:28:44;8.05;;;3.40;;
57744;SDS011;58941;50.168;4.410;2024-01-25T12:31:11;5.20;;;2.53;;
57744;SDS011;58941;50.168;4.410;2024-01-25T12:33:40;6.72;;;2.72;;
57744;SDS011;58941;50.168;4.410;2024-01-25T12:36:10;5.80;;;3.25;;
57744;SDS011;58941;50.168;4.410;2024-01-25T12:38:40;6.10;;;2.80;;
57744;SDS011;58941;50.168;4.410;2024-01-25T12:41:08;6.30;;;3.10;;
57744;SDS011;58941;50.168;4.410;2024-01-25T12:43:35;5.18;;;2.70;;
57744;SDS011;58941;50.168;4.410;2024-01-25T12:46:02;4.75;;;2.58;;
57744;SDS011;58941;50.168;4.410;2024-01-25T12:48:30;6.45;;;2.95;;
57744;SDS011;58941;50.168;4.410;2024-01-25T12:50:58;7.50;;;2.92;;
57744;SDS011;58941;50.168;4.410;2024-01-25T12:53:25;4.97;;;2.50;;
57744;SDS011;58941;50.168;4.410;2024-01-25T12:55:51;6.70;;;2.90;;
57744;SDS011;58941;50.168;4.410;2024-01-25T12:58:17;3.95;;;2.78;;
57744;SDS011;58941;50.168;4.410;2024-01-25T13:00:44;5.65;;;2.80;;
57744;SDS011;58941;50.168;4.410;2024-01-25T13:03:11;5.80;;;2.60;;
57744;SDS011;58941;50.168;4.410;2024-01-25T13:05:37;5.95;;;2.83;;
57744;SDS011;58941;50.168;4.410;2024-01-25T13:08:05;4.80;;;3.13;;
57744;SDS011;58941;50.168;4.410;2024-01-25T13:10:31;4.82;;;2.60;;
57744;SDS011;58941;50.168;4.410;2024-01-25T13:12:57;8.38;;;3.15;;
57744;SDS011;58941;50.168;4.410;2024-01-25T13:15:23;6.05;;;2.90;;
57744;SDS011;58941;50.168;4.410;2024-01-25T13:17:48;6.78;;;3.10;;
57744;SDS011;58941;50.168;4.410;2024-01-25T13:20:15;5.40;;;2.83;;
57744;SDS011;58941;50.168;4.410;2024-01-25T13:22:42;6.13;;;2.78;;
57744;SDS011;58941;50.168;4.410;2024-01-25T13:25:08;4.45;;;2.72;;
57744;SDS011;58941;50.168;4.410;2024-01-25T13:27:42;4.80;;;2.75;;
57744;SDS011;58941;50.168;4.410;2024-01-25T13:30:11;4.57;;;2.55;;
57744;SDS011;58941;50.168;4.410;2024-01-25T13:32:38;5.13;;;2.80;;
57744;SDS011;58941;50.168;4.410;2024-01-25T13:35:05;6.85;;;2.70;;
57744;SDS011;58941;50.168;4.410;2024-01-25T13:37:33;6.78;;;3.00;;
57744;SDS011;58941;50.168;4.410;2024-01-25T13:40:01;4.78;;;2.35;;
57744;SDS011;58941;50.168;4.410;2024-01-25T13:42:30;5.97;;;2.53;;
57744;SDS011;58941;50.168;4.410;2024-01-25T13:45:01;5.82;;;2.72;;
57744;SDS011;58941;50.168;4.410;2024-01-25T13:47:31;4.18;;;2.63;;
57744;SDS011;58941;50.168;4.410;2024-01-25T13:50:00;5.45;;;2.80;;
57744;SDS011;58941;50.168;4.410;2024-01-25T13:52:29;5.22;;;2.40;;
57744;SDS011;58941;50.168;4.410;2024-01-25T13:54:56;8.65;;;3.45;;
57744;SDS011;58941;50.168;4.410;2024-01-25T13:57:24;5.47;;;3.00;;
57744;SDS011;58941;50.168;4.410;2024-01-25T13:59:51;5.32;;;2.70;;
57744;SDS011;58941;50.168;4.410;2024-01-25T14:02:17;5.00;;;2.60;;
57744;SDS011;58941;50.168;4.410;2024-01-25T14:04:42;6.10;;;2.67;;
57744;SDS011;58941;50.168;4.410;2024-01-25T14:07:09;5.10;;;2.47;;
57744;SDS011;58941;50.168;4.410;2024-01-25T14:09:38;6.00;;;2.88;;
57744;SDS011;58941;50.168;4.410;2024-01-25T14:12:07;4.78;;;2.45;;
57744;SDS011;58941;50.168;4.410;2024-01-25T14:14:33;4.03;;;2.60;;
57744;SDS011;58941;50.168;4.410;2024-01-25T14:16:59;6.18;;;2.58;;
57744;SDS011;58941;50.168;4.410;2024-01-25T14:19:28;4.05;;;2.25;;
57744;SDS011;58941;50.168;4.410;2024-01-25T14:21:55;4.82;;;2.17;;
57744;SDS011;58941;50.168;4.410;2024-01-25T14:24:21;5.20;;;2.70;;
57744;SDS011;58941;50.168;4.410;2024-01-25T14:26:46;6.47;;;2.40;;
57744;SDS011;58941;50.168;4.410;2024-01-25T14:29:12;3.13;;;1.77;;
57744;SDS011;58941;50.168;4.410;2024-01-25T14:31:39;5.10;;;2.35;;
57744;SDS011;58941;50.168;4.410;2024-01-25T14:34:06;4.30;;;2.25;;
57744;SDS011;58941;50.168;4.410;2024-01-25T14:36:32;5.57;;;2.30;;
57744;SDS011;58941;50.168;4.410;2024-01-25T14:38:58;5.43;;;2.63;;
57744;SDS011;58941;50.168;4.410;2024-01-25T14:41:24;3.55;;;2.28;;
57744;SDS011;58941;50.168;4.410;2024-01-25T14:43:50;4.35;;;2.47;;